Time;durP1;ratioP1;P1;durP2;ratioP2;P2;SDS_P1;SDS_P2;PMS_P1;PMS_P2;Temp;Humidity;BMP_temperature;BMP_pressure;BME280_temperature;BME280_humidity;BME280_pressure;Samples;Min_cycle;Max_cycle;Signal;HPM_P1;HPM_P2
2024/01/18 05:05:19;;;;;;;;;26.75;21.00;;;;;0.68;100.00;99185.59;5735068;22;46256;-75
2024/01/18 05:07:44;;;;;;;;;24.25;20.25;;;;;0.22;100.00;99115.47;4997701;28;45428;-76
2024/01/18 05:10:11;;;;;;;;;29.25;26.00;;;;;0.13;100.00;99098.63;4980620;28;45383;-76
2024/01/18 05:12:37;;;;;;;;;26.25;23.25;;;;;0.72;100.00;99203.06;5000486;28;45349;-76
2024/01/18 05:15:03;;;;;;;;;30.25;25.25;;;;;0.61;100.00;99200.06;4978657;28;46963;-76
2024/01/18 05:17:34;;;;;;;;;35.75;25.25;;;;;0.48;100.00;99169.22;5000825;28;45204;-76
2024/01/18 05:20:07;;;;;;;;;38.25;35.25;;;;;0.49;100.00;99174.50;4982050;28;45366;-76
2024/01/18 05:22:33;;;;;;;;;34.00;27.75;;;;;0.62;100.00;99207.94;5000522;28;45587;-75
2024/01/18 05:24:59;;;;;;;;;24.75;20.25;;;;;0.72;100.00;99231.69;4980351;28;46620;-76
2024/01/18 05:27:32;;;;;;;;;34.50;33.50;;;;;0.72;100.00;99234.28;4986241;28;45431;-76
2024/01/18 05:29:58;;;;;;;;;43.00;30.67;;;;;0.75;100.00;99240.47;4997547;28;45488;-75
2024/01/18 05:32:23;;;;;;;;;29.50;23.00;;;;;0.46;100.00;99202.09;5000708;28;45375;-75
2024/01/18 05:34:50;;;;;;;;;34.67;27.33;;;;;0.75;100.00;99253.47;4997937;28;45244;-75
2024/01/18 05:37:16;;;;;;;;;46.50;33.50;;;;;0.76;100.00;99257.00;4999711;28;45367;-75
2024/01/18 05:39:41;;;;;;;;;44.33;37.00;;;;;0.52;100.00;99225.72;4998318;28;45325;-74
2024/01/18 05:42:08;;;;;;;;;45.67;32.67;;;;;0.51;100.00;99234.34;4998650;28;45421;-75
2024/01/18 05:44:34;;;;;;;;;43.67;30.67;;;;;0.37;100.00;99215.63;4998797;28;45247;-75
2024/01/18 05:46:59;;;;;;;;;30.33;28.33;;;;;0.49;100.00;99233.41;4999349;28;45381;-75
2024/01/18 05:49:25;;;;;;;;;52.33;34.33;;;;;0.00;100.00;99146.63;4998752;28;45768;-75
2024/01/18 05:51:51;;;;;;;;;39.00;31.00;;;;;0.76;100.00;99283.88;4993916;28;46790;-76
2024/01/18 05:54:16;;;;;;;;;47.67;41.00;;;;;0.59;100.00;99266.75;4999856;28;45472;-75
2024/01/18 05:56:42;;;;;;;;;38.67;33.00;;;;;0.47;100.00;99237.66;4981904;28;45341;-75
2024/01/18 05:59:07;;;;;;;;;36.67;33.00;;;;;0.85;100.00;99302.44;5000710;28;45300;-76
2024/01/18 06:01:32;;;;;;;;;39.00;32.33;;;;;0.56;100.00;99253.59;4979021;28;45874;-75
2024/01/18 06:03:58;;;;;;;;;37.67;31.33;;;;;0.76;100.00;99289.06;5000321;28;47758;-76
2024/01/18 06:06:24;;;;;;;;;38.00;35.00;;;;;0.64;100.00;99270.38;4985589;28;45357;-74
2024/01/18 06:08:49;;;;;;;;;33.25;28.25;;;;;0.64;100.00;99268.69;4998783;28;45409;-75
2024/01/18 06:11:15;;;;;;;;;35.50;24.50;;;;;0.83;100.00;99317.06;4997705;28;45548;-75
2024/01/18 06:13:40;;;;;;;;;27.25;20.75;;;;;0.84;100.00;99320.56;4993011;28;47251;-75
2024/01/18 06:16:11;;;;;;;;;45.50;30.25;;;;;0.72;100.00;99294.97;4991020;28;45428;-75
2024/01/18 06:18:38;;;;;;;;;29.75;28.00;;;;;0.81;100.00;99318.75;4986031;28;45423;-76
2024/01/18 06:21:06;;;;;;;;;33.50;29.00;;;;;0.78;100.00;99326.41;5008010;28;46239;-75
2024/01/18 06:23:32;;;;;;;;;39.00;32.25;;;;;0.54;100.00;99286.47;4999485;28;45677;-75
2024/01/18 06:25:57;;;;;;;;;36.25;34.00;;;;;1.05;100.00;99378.63;4993501;28;45255;-75
2024/01/18 06:28:23;;;;;;;;;38.25;35.25;;;;;0.54;100.00;99287.34;4999509;28;45536;-75
2024/01/18 06:30:48;;;;;;;;;39.50;31.25;;;;;0.90;100.00;99365.03;4992524;28;53032;-75
2024/01/18 06:33:13;;;;;;;;;36.75;27.25;;;;;0.56;100.00;99306.50;4999242;28;53993;-75
2024/01/18 06:35:38;;;;;;;;;46.25;33.00;;;;;1.08;100.00;99404.78;4988703;28;45321;-75
2024/01/18 06:38:04;;;;;;;;;34.25;29.00;;;;;0.79;100.00;99361.13;4997626;28;54862;-75
2024/01/18 06:40:29;;;;;;;;;41.25;33.25;;;;;0.91;100.00;99387.63;4994101;28;45192;-74
2024/01/18 06:42:54;;;;;;;;;48.75;37.75;;;;;1.15;100.00;99444.03;4997235;28;55426;-75
2024/01/18 06:45:20;;;;;;;;;37.00;29.75;;;;;0.81;100.00;99396.78;4993809;28;58521;-75
2024/01/18 06:47:45;;;;;;;;;52.75;38.25;;;;;0.81;100.00;99412.38;4998612;28;48711;-75
2024/01/18 06:50:10;;;;;;;;;46.50;38.00;;;;;0.81;100.00;99419.28;4996529;28;45511;-75
2024/01/18 06:52:36;;;;;;;;;44.00;35.00;;;;;-0.04;100.00;99283.25;4996920;28;51619;-75
2024/01/18 06:55:02;;;;;;;;;47.25;37.00;;;;;0.91;100.00;99446.56;4995051;28;45413;-75
2024/01/18 06:57:27;;;;;;;;;52.00;42.67;;;;;1.11;100.00;99495.97;4998830;28;45464;-76
2024/01/18 06:59:54;;;;;;;;;53.75;41.75;;;;;0.86;100.00;99456.78;4995298;28;45670;-76
2024/01/18 07:02:19;;;;;;;;;37.67;35.00;;;;;0.70;100.00;99430.94;5005706;28;46702;-75
2024/01/18 07:04:45;;;;;;;;;45.33;41.00;;;;;1.14;100.00;99505.63;4997423;28;45490;-75
2024/01/18 07:07:10;;;;;;;;;47.00;41.00;;;;;1.13;100.00;99516.88;4998093;28;45598;-76
2024/01/18 07:09:36;;;;;;;;;52.67;45.00;;;;;0.92;100.00;99470.03;4996501;28;45334;-76
2024/01/18 07:12:01;;;;;;;;;49.00;40.67;;;;;0.74;100.00;99464.97;4995691;28;46279;-76
2024/01/18 07:14:26;;;;;;;;;49.33;39.00;;;;;0.99;100.00;99502.41;4996695;28;45763;-74
2024/01/18 07:16:52;;;;;;;;;59.00;43.00;;;;;1.08;100.00;99527.06;4997663;28;45267;-75
2024/01/18 07:19:17;;;;;;;;;59.67;41.00;;;;;0.99;100.00;99521.50;4996554;28;45432;-75
2024/01/18 07:21:42;;;;;;;;;54.33;43.33;;;;;0.85;100.00;99507.91;4996897;28;45278;-75
2024/01/18 07:24:08;;;;;;;;;60.67;43.67;;;;;1.08;100.00;99565.22;4998780;28;56629;-75
2024/01/18 07:26:33;;;;;;;;;56.33;42.67;;;;;0.62;100.00;99496.53;4999165;28;45361;-75
2024/01/18 07:28:58;;;;;;;;;65.33;49.67;;;;;0.97;100.00;99556.06;5002188;28;45148;-75
2024/01/18 07:31:24;;;;;;;;;56.00;43.33;;;;;0.82;100.00;99554.59;4999724;28;51432;-75
2024/01/18 07:33:52;;;;;;;;;61.33;43.00;;;;;0.51;100.00;99497.78;5001587;28;47590;-77
2024/01/18 07:36:17;;;;;;;;;59.33;48.00;;;;;0.97;100.00;99575.16;4997215;28;45487;-75
2024/01/18 07:38:43;;;;;;;;;62.67;48.00;;;;;1.06;100.00;99587.69;5001637;28;45261;-75
2024/01/18 07:41:09;;;;;;;;;62.00;45.33;;;;;0.91;100.00;99572.31;4998785;28;45540;-77
2024/01/18 07:43:34;;;;;;;;;63.00;47.33;;;;;0.32;100.00;99480.50;4983310;28;45314;-75
2024/01/18 07:46:00;;;;;;;;;64.67;49.67;;;;;0.63;100.00;99536.44;4995993;28;45620;-75
2024/01/18 07:48:25;;;;;;;;;57.67;46.00;;;;;1.07;100.00;99626.78;4997093;28;45377;-75
2024/01/18 07:50:51;;;;;;;;;55.67;45.33;;;;;1.07;100.00;99631.13;4983325;28;47981;-74
2024/01/18 07:53:16;;;;;;;;;54.00;43.67;;;;;0.76;100.00;99588.16;5000940;28;54901;-74
2024/01/18 07:55:43;;;;;;;;;62.33;48.00;;;;;0.61;100.00;99564.94;4996614;28;45566;-75
2024/01/18 07:58:08;;;;;;;;;70.33;51.67;;;;;0.84;100.00;99596.28;5002364;28;45409;-74
2024/01/18 08:00:34;;;;;;;;;65.33;48.67;;;;;0.68;100.00;99565.25;4998085;28;45409;-74
2024/01/18 08:02:59;;;;;;;;;59.67;46.00;;;;;0.90;100.00;99614.78;4983015;28;45246;-74
2024/01/18 08:05:27;;;;;;;;;73.33;53.00;;;;;0.69;100.00;99593.91;4995344;28;45422;-75
2024/01/18 08:07:52;;;;;;;;;57.67;45.67;;;;;1.02;100.00;99659.53;5001201;28;45346;-75
2024/01/18 08:10:18;;;;;;;;;73.33;53.00;;;;;0.83;100.00;99626.59;4996855;28;45389;-75
2024/01/18 08:12:44;;;;;;;;;75.67;58.00;;;;;0.73;100.00;99619.22;4983030;28;46065;-74
2024/01/18 08:15:11;;;;;;;;;69.00;56.33;;;;;1.03;100.00;99681.22;4999241;28;45520;-73
2024/01/18 08:17:37;;;;;;;;;67.33;49.33;;;;;0.82;100.00;99647.34;5001285;28;45248;-76
2024/01/18 08:20:12;;;;;;;;;68.67;52.00;;;;;1.15;100.00;99706.88;4998900;28;45444;-75
2024/01/18 08:22:41;;;;;;;;;67.67;56.00;;;;;0.83;100.00;99665.63;5001277;28;45311;-75
2024/01/18 08:25:07;;;;;;;;;65.67;47.00;;;;;0.82;100.00;99679.44;4994691;28;45191;-75
2024/01/18 08:27:32;;;;;;;;;67.67;52.33;;;;;1.02;100.00;99718.47;4995638;28;45475;-75
2024/01/18 08:29:58;;;;;;;;;72.00;60.00;;;;;0.81;100.00;99680.28;4998972;28;45439;-75
2024/01/18 08:32:28;;;;;;;;;65.00;50.67;;;;;0.79;100.00;99681.91;5001155;28;45460;-75
2024/01/18 08:34:54;;;;;;;;;70.33;53.00;;;;;0.70;100.00;99675.41;4998130;28;45433;-75
2024/01/18 08:37:19;;;;;;;;;68.00;48.67;;;;;0.30;100.00;99608.59;4996550;28;45438;-75
2024/01/18 08:39:46;;;;;;;;;75.67;55.67;;;;;1.08;100.00;99765.59;4985204;28;49452;-74
2024/01/18 08:42:11;;;;;;;;;62.33;51.67;;;;;0.98;100.00;99761.69;4996571;28;45283;-75
2024/01/18 08:44:37;;;;;;;;;85.33;65.67;;;;;1.03;100.00;99775.78;4999219;28;45369;-75
2024/01/18 08:47:02;;;;;;;;;81.33;56.33;;;;;1.10;100.00;99793.47;4982813;28;45369;-75
2024/01/18 08:49:28;;;;;;;;;65.67;55.67;;;;;1.10;100.00;99800.38;4999588;28;45336;-75
2024/01/18 08:51:53;;;;;;;;;64.33;52.00;;;;;1.11;100.00;99802.16;4999631;28;44882;-75
2024/01/18 08:54:20;;;;;;;;;68.00;55.33;;;;;1.09;100.00;99815.13;5001750;28;45336;-76
2024/01/18 08:56:47;;;;;;;;;75.67;59.67;;;;;1.10;100.00;99827.31;4984676;28;47038;-76
2024/01/18 08:59:12;;;;;;;;;76.67;57.33;;;;;1.11;100.00;99829.06;5002477;28;45348;-74
2024/01/18 09:01:38;;;;;;;;;70.00;54.33;;;;;0.65;100.00;99748.03;4998262;28;45235;-76
2024/01/18 09:04:03;;;;;;;;;67.00;51.33;;;;;0.59;100.00;99743.44;5002190;28;45215;-75
2024/01/18 09:06:29;;;;;;;;;70.00;48.67;;;;;1.20;100.00;99844.22;4998166;28;45523;-75
2024/01/18 09:08:54;;;;;;;;;71.67;58.00;;;;;1.07;100.00;99842.78;4984252;28;46115;-76
2024/01/18 09:11:20;;;;;;;;;71.00;56.33;;;;;0.91;100.00;99834.19;4999960;28;45261;-76
2024/01/18 09:13:45;;;;;;;;;70.33;54.67;;;;;1.19;100.00;99883.19;5000108;28;45279;-78
2024/01/18 09:16:16;;;;;;;;;82.33;59.33;;;;;1.19;100.00;99889.28;5001457;28;45378;-76
2024/01/18 09:18:42;;;;;;;;;69.67;57.00;;;;;0.89;100.00;99839.28;5001314;28;45315;-76
2024/01/18 09:21:07;;;;;;;;;75.33;56.33;;;;;1.16;100.00;99886.56;4986062;28;45239;-76
2024/01/18 09:23:32;;;;;;;;;68.33;54.33;;;;;0.97;100.00;99852.69;4983191;28;45242;-76
2024/01/18 09:25:57;;;;;;;;;71.00;53.67;;;;;1.31;100.00;99909.78;4999553;28;45397;-76
2024/01/18 09:28:23;;;;;;;;;58.00;48.67;;;;;1.19;100.00;99891.91;4982381;28;60932;-76
2024/01/18 09:30:48;;;;;;;;;74.00;57.33;;;;;1.26;100.00;99899.19;4998832;28;45302;-75
2024/01/18 09:33:13;;;;;;;;;65.67;51.00;;;;;1.08;100.00;99867.06;5000365;28;45199;-76
2024/01/18 09:35:40;;;;;;;;;74.00;57.33;;;;;0.96;100.00;99853.50;4997925;28;45287;-76
2024/01/18 09:38:05;;;;;;;;;70.33;56.00;;;;;1.30;100.00;99916.72;5000089;28;45424;-76
2024/01/18 09:40:31;;;;;;;;;70.33;51.00;;;;;1.11;100.00;99894.13;4986876;28;45666;-76
2024/01/18 09:43:00;;;;;;;;;64.67;51.00;;;;;1.33;100.00;99953.31;4983134;28;45240;-75
2024/01/18 09:45:28;;;;;;;;;63.67;52.00;;;;;1.43;100.00;99964.16;4988820;28;45426;-76
2024/01/18 09:47:53;;;;;;;;;73.33;56.67;;;;;1.31;100.00;99959.25;4997473;28;45413;-76
2024/01/18 09:50:20;;;;;;;;;66.33;51.67;;;;;0.98;100.00;99899.59;4994126;28;45254;-77
2024/01/18 09:52:46;;;;;;;;;64.33;52.67;;;;;1.13;100.00;99933.25;5000226;28;45287;-76
2024/01/18 09:55:11;;;;;;;;;70.67;55.00;;;;;1.25;100.00;99948.56;4978099;28;45163;-76
2024/01/18 09:57:43;;;;;;;;;67.67;52.00;;;;;1.48;100.00;99981.78;4997555;28;47102;-75
2024/01/18 10:00:15;;;;;;;;;65.67;52.33;;;;;1.26;100.00;99952.94;4995241;28;45753;-76
2024/01/18 10:02:40;;;;;;;;;66.67;53.00;;;;;1.44;100.00;99978.97;4999317;28;45595;-75
2024/01/18 10:05:07;;;;;;;;;67.33;51.67;;;;;1.64;100.00;100025.06;4994813;28;45390;-75
2024/01/18 10:07:34;;;;;;;;;69.33;56.00;;;;;1.64;100.00;100025.06;4962038;28;45535;-75
2024/01/18 10:09:59;;;;;;;;;66.67;48.00;;;;;1.41;100.00;99984.03;4976552;28;45422;-75
2024/01/18 10:12:31;;;;;;;;;68.00;54.00;;;;;1.87;100.00;100053.91;4979077;28;47110;-75
2024/01/18 10:14:57;;;;;;;;;65.33;48.67;;;;;1.70;100.00;100014.94;4978542;28;45242;-75
2024/01/18 10:17:23;;;;;;;;;67.67;51.00;;;;;1.81;100.00;100025.84;4979912;28;46031;-75
2024/01/18 10:19:50;;;;;;;;;70.67;50.67;;;;;1.92;100.00;100022.03;4960430;28;45509;-75
2024/01/18 10:22:16;;;;;;;;;68.67;50.00;;;;;2.24;100.00;100062.63;4962307;28;45450;-75
2024/01/18 10:24:41;;;;;;;;;62.33;49.00;;;;;2.31;100.00;100055.97;4960347;28;46351;-74
2024/01/18 10:27:07;;;;;;;;;67.00;52.33;;;;;2.36;100.00;100049.25;4953942;28;46803;-76
2024/01/18 10:29:36;;;;;;;;;66.67;52.33;;;;;2.48;100.00;100067.16;4974476;28;53907;-76
2024/01/18 10:32:03;;;;;;;;;59.33;49.00;;;;;2.74;100.00;100106.53;4976698;28;45362;-75
2024/01/18 10:34:33;;;;;;;;;70.00;54.33;;;;;1.97;100.00;99967.53;4978340;28;45443;-76
2024/01/18 10:36:58;;;;;;;;;57.00;46.33;;;;;2.74;100.00;100111.75;4975528;28;45509;-75
2024/01/18 10:39:23;;;;;;;;;69.33;54.00;;;;;2.45;100.00;100054.84;4961479;28;45314;-76
2024/01/18 10:41:49;;;;;;;;;61.33;47.33;;;;;2.80;100.00;100120.78;4975918;28;50224;-76
2024/01/18 10:44:15;;;;;;;;;61.00;47.33;;;;;2.86;100.00;100126.25;4979814;28;45426;-76
2024/01/18 10:46:42;;;;;;;;;67.33;50.33;;;;;2.81;100.00;100106.88;4976334;28;46014;-76
2024/01/18 10:49:08;;;;;;;;;65.00;52.33;;;;;2.75;100.00;100084.88;4979863;28;45251;-76
2024/01/18 10:51:37;;;;;;;;;59.33;47.67;;;;;2.60;100.00;100062.47;4957967;28;44843;-75
2024/01/18 10:54:06;;;;;;;;;61.00;49.67;;;;;3.04;100.00;100139.22;4979117;28;45516;-76
2024/01/18 10:56:31;;;;;;;;;67.00;49.00;;;;;2.81;100.00;100104.28;4971497;28;46274;-76
2024/01/18 10:58:56;;;;;;;;;58.00;48.00;;;;;2.97;100.00;100145.00;4974672;28;50215;-76
2024/01/18 11:01:22;;;;;;;;;50.00;42.00;;;;;2.82;100.00;100134.75;4956880;28;45320;-77
2024/01/18 11:03:48;;;;;;;;;62.33;50.00;;;;;2.68;100.00;100131.53;4975596;28;45417;-75
2024/01/18 11:06:14;;;;;;;;;52.50;41.25;;;;;2.76;100.00;100154.50;4983542;28;46326;-76
2024/01/18 11:08:41;;;;;;;;;63.75;49.75;;;;;2.76;100.00;100168.41;4995474;28;45145;-75
2024/01/18 11:11:07;;;;;;;;;60.00;49.00;;;;;2.79;100.00;100162.44;4994926;28;45262;-75
2024/01/18 11:13:35;;;;;;;;;65.33;51.67;;;;;2.77;100.00;100169.31;4996652;28;45381;-75
2024/01/18 11:16:01;;;;;;;;;71.67;53.33;;;;;2.71;100.00;100174.25;4996854;28;45735;-75
2024/01/18 11:18:26;;;;;;;;;64.00;54.33;;;;;2.71;100.00;100182.97;4998504;28;45471;-75
2024/01/18 11:21:06;;;;;;;;;71.33;56.67;;;;;2.32;100.00;100124.66;4992915;28;51227;-76
2024/01/18 11:23:38;;;;;;;;;70.67;51.67;;;;;2.55;100.00;100168.34;4998853;28;45266;-76
2024/01/18 11:26:17;;;;;;;;;72.67;54.00;;;;;2.72;100.00;100195.22;4997234;28;45271;-76
2024/01/18 11:28:43;;;;;;;;;77.33;56.33;;;;;2.49;100.00;100157.59;4998792;28;45381;-75
2024/01/18 11:31:09;;;;;;;;;69.00;55.33;;;;;2.67;100.00;100205.44;4975102;28;45448;-76
2024/01/18 11:33:34;;;;;;;;;68.33;54.67;;;;;2.46;100.00;100173.13;4980714;28;45306;-75
2024/01/18 11:36:00;;;;;;;;;58.33;48.67;;;;;2.12;100.00;100116.78;4992094;28;45420;-74
2024/01/18 11:38:32;;;;;;;;;60.00;48.00;;;;;2.60;100.00;100203.34;4999178;28;45541;-76
2024/01/18 11:41:04;;;;;;;;;72.00;54.00;;;;;2.40;100.00;100173.72;4974409;28;45388;-75
2024/01/18 11:43:54;;;;;;;;;62.67;47.33;;;;;2.62;100.00;100219.09;4998617;28;45247;-75
2024/01/18 11:46:41;;;;;;;;;68.67;52.67;;;;;2.48;100.00;100202.78;4994004;28;45445;-74
2024/01/18 11:49:06;;;;;;;;;64.67;50.00;;;;;2.58;100.00;100223.28;4996325;28;45482;-75
2024/01/18 11:51:32;;;;;;;;;63.33;51.00;;;;;2.31;100.00;100177.63;4993195;28;45183;-74
2024/01/18 11:54:02;;;;;;;;;67.00;52.00;;;;;2.58;100.00;100236.31;4982196;28;47274;-74
2024/01/18 11:56:28;;;;;;;;;63.00;50.00;;;;;1.89;100.00;100115.72;4994664;28;45299;-76
2024/01/18 11:58:56;;;;;;;;;55.67;41.67;;;;;2.47;100.00;100227.09;4998192;28;45475;-75
2024/01/18 12:01:22;;;;;;;;;63.33;47.00;;;;;2.60;100.00;100255.53;4995991;28;45330;-75
2024/01/18 12:03:47;;;;;;;;;50.00;43.33;;;;;2.64;100.00;100262.69;4997119;28;45242;-75
2024/01/18 12:06:14;;;;;;;;;66.33;54.33;;;;;2.55;100.00;100257.06;4980795;28;47326;-75
2024/01/18 12:08:41;;;;;;;;;64.33;51.00;;;;;2.68;100.00;100279.38;4997288;28;45234;-77
2024/01/18 12:11:07;;;;;;;;;66.33;52.00;;;;;2.72;100.00;100285.63;4998310;28;45349;-76
2024/01/18 12:13:33;;;;;;;;;61.33;51.67;;;;;2.49;100.00;100250.63;5001677;28;45612;-76
2024/01/18 12:15:58;;;;;;;;;72.33;57.33;;;;;2.57;100.00;100268.44;5000630;28;46534;-77
2024/01/18 12:18:24;;;;;;;;;69.67;55.00;;;;;2.67;100.00;100278.50;5001950;28;45294;-77
2024/01/18 12:20:49;;;;;;;;;65.67;52.33;;;;;2.80;100.00;100307.75;4996742;28;45300;-76
2024/01/18 12:23:17;;;;;;;;;55.00;43.33;;;;;2.72;100.00;100286.56;4999380;28;45565;-73
2024/01/18 12:25:44;;;;;;;;;68.67;50.67;;;;;2.83;100.00;100298.38;4996952;28;45638;-75
2024/01/18 12:28:10;;;;;;;;;58.75;43.75;;;;;2.86;100.00;100314.19;4999935;28;45179;-76
2024/01/18 12:30:40;;;;;;;;;48.50;42.50;;;;;2.88;100.00;100315.13;4996259;28;45483;-75
2024/01/18 12:33:06;;;;;;;;;45.25;41.00;;;;;2.79;100.00;100299.03;4998095;28;45941;-81
2024/01/18 12:35:36;;;;;;;;;58.00;42.75;;;;;2.89;100.00;100316.94;4991867;28;48497;-79
2024/01/18 12:38:02;;;;;;;;;51.25;41.25;;;;;2.55;100.00;100262.28;4998287;28;45486;-79
2024/01/18 12:40:27;;;;;;;;;57.00;42.33;;;;;2.73;100.00;100284.81;4996884;28;45465;-79
2024/01/18 12:42:53;;;;;;;;;61.33;48.00;;;;;2.31;100.00;100220.25;4995965;28;45441;-79
2024/01/18 12:45:18;;;;;;;;;65.67;52.00;;;;;2.58;100.00;100258.91;4996647;28;46059;-80
2024/01/18 12:47:43;;;;;;;;;65.67;50.67;;;;;2.86;100.00;100310.69;4998304;28;44834;-79
2024/01/18 12:50:10;;;;;;;;;74.33;53.67;;;;;2.80;100.00;100297.31;4997581;28;45401;-79
2024/01/18 12:52:36;;;;;;;;;61.00;47.00;;;;;2.27;100.00;100207.91;4999119;28;45328;-79
2024/01/18 12:55:02;;;;;;;;;55.33;47.67;;;;;3.08;100.00;100338.66;4996992;28;45392;-78
2024/01/18 12:57:27;;;;;;;;;68.33;50.00;;;;;3.07;100.00;100342.13;4997797;28;45405;-79
2024/01/18 12:59:52;;;;;;;;;63.67;49.33;;;;;2.76;100.00;100288.47;4998361;28;45508;-79
2024/01/18 13:02:25;;;;;;;;;71.00;57.33;;;;;2.95;100.00;100323.28;4998167;28;45536;-80
2024/01/18 13:04:51;;;;;;;;;70.33;54.33;;;;;2.88;100.00;100319.47;4996101;28;45554;-80
2024/01/18 13:07:17;;;;;;;;;58.00;45.50;;;;;2.82;100.00;100320.06;4995737;28;45253;-78
2024/01/18 13:09:43;;;;;;;;;61.75;46.00;;;;;2.81;100.00;100310.47;4997820;28;45341;-79
2024/01/18 13:12:08;;;;;;;;;55.25;44.25;;;;;3.06;100.00;100354.28;4996278;28;45320;-78
2024/01/18 13:14:35;;;;;;;;;86.00;63.33;;;;;2.84;100.00;100320.16;5000558;28;45407;-77
2024/01/18 13:17:01;;;;;;;;;36.25;32.00;;;;;2.79;100.00;100304.25;4986557;28;45171;-77
2024/01/18 13:19:27;;;;;;;;;37.00;32.50;;;;;3.19;100.00;100375.72;5003670;28;45163;-78
2024/01/18 13:21:53;;;;;;;;;38.50;35.25;;;;;2.67;100.00;100296.75;4995804;28;45501;-79
2024/01/18 13:24:19;;;;;;;;;38.25;31.50;;;;;2.79;100.00;100319.91;5003800;28;45230;-79
2024/01/18 13:26:44;;;;;;;;;47.00;38.00;;;;;2.77;100.00;100315.44;4981261;28;45309;-78
2024/01/18 13:29:10;;;;;;;;;37.25;29.25;;;;;2.99;100.00;100352.19;4992033;28;45390;-78
2024/01/18 13:31:36;;;;;;;;;35.00;33.00;;;;;3.19;100.00;100387.06;4999693;28;45541;-79
2024/01/18 13:34:02;;;;;;;;;31.00;24.50;;;;;3.19;100.00;100383.56;5004137;28;45500;-78
2024/01/18 13:36:28;;;;;;;;;31.25;28.00;;;;;2.92;100.00;100355.34;5001314;28;45562;-78
2024/01/18 13:38:54;;;;;;;;;27.25;27.00;;;;;3.07;100.00;100378.66;5004073;28;45385;-77
2024/01/18 13:41:19;;;;;;;;;30.50;25.00;;;;;2.73;100.00;100323.97;4985558;28;45257;-77
2024/01/18 13:43:45;;;;;;;;;39.75;35.00;;;;;3.19;100.00;100409.69;4986077;28;47544;-79
2024/01/18 13:46:10;;;;;;;;;26.25;25.75;;;;;3.11;100.00;100405.00;4999104;28;45451;-79
2024/01/18 13:48:36;;;;;;;;;29.25;27.00;;;;;2.83;100.00;100371.47;5003853;28;45488;-79
2024/01/18 13:51:02;;;;;;;;;27.00;24.00;;;;;3.22;100.00;100429.03;4999073;28;45452;-78
2024/01/18 13:53:28;;;;;;;;;35.50;30.50;;;;;3.22;100.00;100431.63;5001711;28;46489;-77
2024/01/18 13:55:54;;;;;;;;;37.25;28.50;;;;;2.86;100.00;100368.13;4995775;28;45475;-77
2024/01/18 13:58:22;;;;;;;;;32.00;27.75;;;;;3.14;100.00;100425.16;4996499;28;45312;-78
2024/01/18 14:00:48;;;;;;;;;21.50;21.00;;;;;2.91;100.00;100377.03;4994043;28;46790;-77
2024/01/18 14:03:14;;;;;;;;;28.00;26.50;;;;;3.27;100.00;100450.13;4997180;28;46278;-79
2024/01/18 14:05:43;;;;;;;;;28.00;21.00;;;;;3.27;100.00;100455.34;4996741;28;45333;-79
2024/01/18 14:08:09;;;;;;;;;27.25;24.00;;;;;2.77;100.00;100367.66;4997818;28;45463;-79
2024/01/18 14:10:35;;;;;;;;;22.25;22.00;;;;;3.25;100.00;100449.16;4978349;28;47316;-79
2024/01/18 14:13:02;;;;;;;;;31.25;26.50;;;;;3.00;100.00;100411.44;4981771;28;47058;-80
2024/01/18 14:15:31;;;;;;;;;31.75;28.25;;;;;3.32;100.00;100465.19;4979648;28;45509;-79
2024/01/18 14:17:57;;;;;;;;;25.00;21.50;;;;;2.55;100.00;100335.31;5000019;28;45288;-80
2024/01/18 14:20:22;;;;;;;;;30.25;27.25;;;;;3.40;100.00;100480.34;4998427;28;45289;-80
2024/01/18 14:22:48;;;;;;;;;33.25;28.00;;;;;2.78;100.00;100374.69;4981723;28;47562;-79
2024/01/18 14:25:13;;;;;;;;;32.25;28.00;;;;;2.84;100.00;100380.19;4998192;28;45318;-80
2024/01/18 14:27:39;;;;;;;;;25.75;23.75;;;;;3.47;100.00;100485.03;4996457;28;45280;-79
2024/01/18 14:30:07;;;;;;;;;27.75;22.75;;;;;2.82;100.00;100374.00;4977445;28;46120;-80
2024/01/18 14:32:33;;;;;;;;;36.75;31.50;;;;;3.56;100.00;100502.06;4996950;28;46012;-80
2024/01/18 14:34:58;;;;;;;;;26.00;20.75;;;;;3.08;100.00;100423.16;4994371;28;45722;-80
2024/01/18 14:37:24;;;;;;;;;32.00;31.50;;;;;3.61;100.00;100504.88;4996737;28;45467;-80
2024/01/18 14:39:49;;;;;;;;;20.75;18.50;;;;;3.66;100.00;100515.56;4983534;28;46060;-80
2024/01/18 14:42:15;;;;;;;;;17.00;17.00;;;;;3.67;100.00;100513.03;4999848;28;45430;-81
2024/01/18 14:44:42;;;;;;;;;18.00;15.50;;;;;3.24;100.00;100447.38;5001759;28;44779;-81
2024/01/18 14:47:08;;;;;;;;;20.25;15.75;;;;;3.73;100.00;100525.50;4984949;28;45545;-82
2024/01/18 14:49:34;;;;;;;;;20.00;14.50;;;;;3.71;100.00;100533.25;4998505;28;45353;-79
2024/01/18 14:51:59;;;;;;;;;10.50;10.50;;;;;3.32;100.00;100493.03;4997610;28;46687;-81
2024/01/18 14:54:25;;;;;;;;;18.25;14.00;;;;;3.39;100.00;100510.81;4998311;28;45284;-80
2024/01/18 14:56:51;;;;;;;;;15.00;12.25;;;;;3.37;100.00;100535.97;4976162;28;45318;-80
2024/01/18 14:59:16;;;;;;;;;14.75;10.00;;;;;3.30;100.00;100533.84;4998460;28;45395;-80
2024/01/18 15:01:42;;;;;;;;;17.50;15.75;;;;;3.09;100.00;100513.69;4996462;28;45252;-80
2024/01/18 15:04:09;;;;;;;;;15.00;14.00;;;;;3.38;100.00;100583.88;4998952;28;45472;-80
2024/01/18 15:06:34;;;;;;;;;18.50;12.00;;;;;2.68;100.00;100478.59;4997027;28;45476;-80
2024/01/18 15:09:00;;;;;;;;;14.25;10.75;;;;;2.87;100.00;100516.06;4998735;28;51538;-79
2024/01/18 15:11:25;;;;;;;;;19.00;14.75;;;;;2.99;100.00;100557.56;4997324;28;46098;-78
2024/01/18 15:13:51;;;;;;;;;17.25;14.25;;;;;2.71;100.00;100521.31;4999687;28;45593;-80
2024/01/18 15:16:17;;;;;;;;;14.50;11.50;;;;;3.19;100.00;100616.00;4979180;28;45248;-79
2024/01/18 15:18:44;;;;;;;;;17.25;14.75;;;;;3.17;100.00;100626.38;4998757;28;45212;-80
2024/01/18 15:21:09;;;;;;;;;17.00;15.00;;;;;2.97;100.00;100599.25;4991233;28;45488;-79
2024/01/18 15:23:34;;;;;;;;;88.00;65.67;;;;;2.99;100.00;100615.88;4998832;28;45275;-79
2024/01/18 15:26:02;;;;;;;;;14.75;13.00;;;;;3.07;100.00;100643.28;4993862;28;49733;-79
2024/01/18 15:28:31;;;;;;;;;14.50;14.00;;;;;2.62;100.00;100582.66;4998559;28;45322;-78
2024/01/18 15:30:56;;;;;;;;;15.00;13.50;;;;;2.97;100.00;100655.78;4995067;28;45381;-78
2024/01/18 15:33:22;;;;;;;;;12.25;8.00;;;;;2.66;100.00;100617.63;4998573;28;45171;-77
2024/01/18 15:35:47;;;;;;;;;47.75;40.50;;;;;2.90;100.00;100665.91;4990983;28;45210;-77
2024/01/18 15:38:12;;;;;;;;;24.25;22.50;;;;;2.38;100.00;100599.59;4992516;28;45268;-78
2024/01/18 15:40:38;;;;;;;;;18.00;17.25;;;;;2.86;100.00;100671.78;4975415;28;46950;-77
2024/01/18 15:43:03;;;;;;;;;19.50;16.00;;;;;2.56;100.00;100636.22;4993600;28;45326;-79
2024/01/18 15:45:29;;;;;;;;;22.75;21.00;;;;;2.43;100.00;100630.34;4992690;28;45399;-77
2024/01/18 15:47:55;;;;;;;;;14.75;12.50;;;;;2.80;100.00;100691.44;4993434;28;45259;-77
2024/01/18 15:50:20;;;;;;;;;17.75;17.00;;;;;2.28;100.00;100599.94;4970293;28;48250;-76
2024/01/18 15:52:46;;;;;;;;;19.00;14.00;;;;;2.76;100.00;100703.44;4995520;28;45376;-76
2024/01/18 15:55:14;;;;;;;;;23.50;17.25;;;;;2.57;100.00;100685.88;4980701;28;45361;-77
2024/01/18 15:57:39;;;;;;;;;25.50;22.75;;;;;2.73;100.00;100707.59;5001277;28;45400;-76
2024/01/18 16:00:06;;;;;;;;;23.00;19.50;;;;;2.56;100.00;100694.53;4998099;28;45367;-76
2024/01/18 16:02:32;;;;;;;;;20.50;17.75;;;;;2.65;100.00;100736.75;4999631;28;45375;-77
2024/01/18 16:04:58;;;;;;;;;12.25;10.50;;;;;2.20;100.00;100664.69;4998378;28;45385;-76
2024/01/18 16:07:23;;;;;;;;;13.00;13.00;;;;;2.58;100.00;100741.59;4996293;28;46633;-76
2024/01/18 16:09:48;;;;;;;;;14.75;10.50;;;;;2.06;100.00;100660.44;4998540;28;63757;-76
2024/01/18 16:12:14;;;;;;;;;16.50;15.50;;;;;2.42;100.00;100738.09;4997627;28;45401;-76